Fort Seybert, West Virginia
Current Conditions -  °F | °C
As of 4:35 PM on Thursday 23 Oct 2014 (Local Time) from KVBW Reporting Station
Clear Clear  
Wind Chill: 59°   Ceiling: Unl
Heat Index: 59°   Visibility: 10mi
Dew Point: 41°   Wind: 9mph
Humidity: 50%   Direction: 330°NNW
Pressure: 29.97"   Gusts: NA
Location:  38.6406°N, 79.2014°W
Report Text: KVBW 232035Z AUTO 33008KT 10SM CLR 15/05 A2997 RMK AO2 T01510048
Loading
Personal Weather Stations






























Interactive Weather Map
Tropical Storm Tracking
New forecast layout! Learn more

10-Day Weather Forecast

Advertisements
Track Severe Weather on mobile